Time;durP1;ratioP1;P1;durP2;ratioP2;P2;SDS_P1;SDS_P2;PMS_P1;PMS_P2;Temp;Humidity;BMP_temperature;BMP_pressure;BME280_temperature;BME280_humidity;BME280_pressure;Samples;Min_cycle;Max_cycle;Signal;HPM_P1;HPM_P2
2021/05/01 00:00:57;;;;;;;19.47;14.10;;;;;;;;;;5060213;28;20200;-69
2021/05/01 00:03:23;;;;;;;18.90;13.77;;;;;;;;;;5060984;28;20186;-69
2021/05/01 00:05:48;;;;;;;18.10;12.60;;;;;;;;;;5058130;28;20674;-69
2021/05/01 00:08:13;;;;;;;16.00;13.17;;;;;;;;;;5057288;28;20243;-69
2021/05/01 00:10:38;;;;;;;18.83;14.67;;;;;;;;;;5059619;28;20209;-69
2021/05/01 00:13:03;;;;;;;20.17;14.93;;;;;;;;;;5055176;28;20209;-69
2021/05/01 00:15:29;;;;;;;18.93;14.63;;;;;;;;;;5061362;28;20273;-70
2021/05/01 00:17:54;;;;;;;21.37;15.80;;;;;;;;;;5058581;28;20211;-69
2021/05/01 00:20:19;;;;;;;24.23;16.00;;;;;;;;;;5062997;28;20208;-70
2021/05/01 00:22:44;;;;;;;22.20;16.00;;;;;;;;;;5065924;28;20239;-70
2021/05/01 00:25:10;;;;;;;18.97;14.97;;;;;;;;;;5061952;28;20197;-70
2021/05/01 00:27:35;;;;;;;20.00;14.97;;;;;;;;;;5062645;28;20181;-69
2021/05/01 00:30:00;;;;;;;23.17;17.17;;;;;;;;;;5060165;28;20179;-70
2021/05/01 00:32:25;;;;;;;21.93;16.20;;;;;;;;;;5059581;28;20218;-69
2021/05/01 00:34:50;;;;;;;19.87;15.70;;;;;;;;;;5057415;28;20185;-70
2021/05/01 00:37:16;;;;;;;21.63;16.67;;;;;;;;;;5058521;28;20265;-70
2021/05/01 00:39:41;;;;;;;21.37;16.47;;;;;;;;;;5059085;28;20259;-68
2021/05/01 00:42:06;;;;;;;22.67;15.80;;;;;;;;;;5063498;28;20704;-70
2021/05/01 00:44:31;;;;;;;20.30;15.67;;;;;;;;;;5054761;28;20166;-68
2021/05/01 00:46:56;;;;;;;23.90;16.37;;;;;;;;;;5061102;28;20168;-70
2021/05/01 00:49:22;;;;;;;24.23;15.67;;;;;;;;;;5068067;28;20640;-69
2021/05/01 00:51:47;;;;;;;19.80;15.87;;;;;;;;;;5058907;28;20197;-69
2021/05/01 00:54:12;;;;;;;19.13;14.87;;;;;;;;;;5062721;28;20251;-69
2021/05/01 00:56:37;;;;;;;18.97;14.70;;;;;;;;;;5062037;28;20189;-70
2021/05/01 00:59:03;;;;;;;21.57;15.70;;;;;;;;;;5059679;28;20247;-69
2021/05/01 01:01:29;;;;;;;18.50;13.63;;;;;;;;;;5060892;28;20232;-70
2021/05/01 01:03:54;;;;;;;20.07;15.30;;;;;;;;;;5062425;28;20631;-69
2021/05/01 01:06:19;;;;;;;18.20;14.03;;;;;;;;;;5057476;28;20230;-69
2021/05/01 01:08:45;;;;;;;23.00;15.77;;;;;;;;;;5059811;28;20185;-70
2021/05/01 01:11:10;;;;;;;21.40;14.53;;;;;;;;;;5064821;28;20223;-70
2021/05/01 01:13:36;;;;;;;22.10;15.53;;;;;;;;;;5054028;28;20203;-69
2021/05/01 01:16:01;;;;;;;17.13;15.00;;;;;;;;;;5058859;28;20202;-69
2021/05/01 01:18:27;;;;;;;18.13;14.93;;;;;;;;;;5059440;28;20671;-69
2021/05/01 01:20:53;;;;;;;17.00;14.50;;;;;;;;;;5063351;28;20259;-70
2021/05/01 01:23:18;;;;;;;18.00;13.53;;;;;;;;;;5061434;28;20173;-69
2021/05/01 01:25:44;;;;;;;16.67;14.13;;;;;;;;;;5057584;28;20174;-71
2021/05/01 01:28:09;;;;;;;17.33;14.23;;;;;;;;;;5061674;28;20556;-69
2021/05/01 01:30:35;;;;;;;18.60;14.23;;;;;;;;;;5062862;28;20197;-69
2021/05/01 01:33:03;;;;;;;14.97;12.47;;;;;;;;;;5057401;28;20219;-69
2021/05/01 01:35:28;;;;;;;15.93;13.57;;;;;;;;;;5060057;28;20727;-70
2021/05/01 01:37:53;;;;;;;20.63;14.73;;;;;;;;;;5056648;28;20303;-68
2021/05/01 01:40:20;;;;;;;23.50;15.43;;;;;;;;;;5063678;28;20181;-69
2021/05/01 01:42:45;;;;;;;22.53;15.33;;;;;;;;;;5053226;28;20205;-68
2021/05/01 01:45:11;;;;;;;20.93;14.37;;;;;;;;;;5063291;28;20662;-69
2021/05/01 01:47:37;;;;;;;17.97;14.73;;;;;;;;;;5056695;28;20182;-68
2021/05/01 01:50:03;;;;;;;21.90;15.03;;;;;;;;;;5064505;28;20255;-68
2021/05/01 01:52:28;;;;;;;20.60;15.37;;;;;;;;;;5054352;28;20228;-69
2021/05/01 01:54:53;;;;;;;21.20;16.67;;;;;;;;;;5060692;28;20223;-69
2021/05/01 01:57:19;;;;;;;24.77;17.20;;;;;;;;;;5052763;28;20689;-68
2021/05/01 01:59:44;;;;;;;22.63;17.07;;;;;;;;;;5059790;28;20173;-70
2021/05/01 02:02:09;;;;;;;23.20;16.23;;;;;;;;;;5057839;28;20220;-70
2021/05/01 02:04:34;;;;;;;27.13;18.00;;;;;;;;;;5054479;28;20231;-71
2021/05/01 02:07:00;;;;;;;28.73;20.63;;;;;;;;;;5060115;28;20177;-71
2021/05/01 02:09:25;;;;;;;27.77;19.93;;;;;;;;;;5062676;28;20545;-71
2021/05/01 02:11:50;;;;;;;30.97;20.77;;;;;;;;;;5058689;28;20198;-71
2021/05/01 02:14:15;;;;;;;28.73;20.60;;;;;;;;;;5058954;28;20185;-71
2021/05/01 02:16:41;;;;;;;36.40;22.37;;;;;;;;;;5059599;28;20173;-71
2021/05/01 02:19:06;;;;;;;32.47;22.63;;;;;;;;;;5057082;28;20593;-70
2021/05/01 02:21:31;;;;;;;34.83;22.80;;;;;;;;;;5060181;28;20188;-69
2021/05/01 02:23:56;;;;;;;34.33;22.17;;;;;;;;;;5070076;28;20173;-69
2021/05/01 02:26:22;;;;;;;35.17;22.87;;;;;;;;;;5052858;28;20487;-72
2021/05/01 02:28:47;;;;;;;33.57;23.13;;;;;;;;;;5061284;28;20165;-69
2021/05/01 02:31:12;;;;;;;33.37;23.17;;;;;;;;;;5060806;28;20741;-69
2021/05/01 02:33:37;;;;;;;31.13;21.77;;;;;;;;;;5055541;28;20170;-69
2021/05/01 02:36:03;;;;;;;33.93;23.67;;;;;;;;;;5057889;28;20216;-70
2021/05/01 02:38:29;;;;;;;36.07;23.40;;;;;;;;;;5058499;28;20629;-70
2021/05/01 02:40:54;;;;;;;31.57;21.70;;;;;;;;;;5064065;28;20860;-68
2021/05/01 02:43:19;;;;;;;35.20;22.67;;;;;;;;;;5062873;28;20170;-69
2021/05/01 02:45:44;;;;;;;39.30;23.80;;;;;;;;;;5058009;28;20177;-69
2021/05/01 02:48:10;;;;;;;36.33;23.17;;;;;;;;;;5064557;28;20177;-69
2021/05/01 02:50:35;;;;;;;34.43;23.23;;;;;;;;;;5058580;28;20194;-69
2021/05/01 02:53:01;;;;;;;36.30;22.97;;;;;;;;;;5061993;28;20258;-68
2021/05/01 02:55:26;;;;;;;33.13;24.00;;;;;;;;;;5062400;28;20181;-69
2021/05/01 02:57:51;;;;;;;29.97;22.30;;;;;;;;;;5059107;28;20705;-68
2021/05/01 03:00:18;;;;;;;35.93;23.77;;;;;;;;;;5061263;28;20635;-69
2021/05/01 03:02:44;;;;;;;32.17;21.80;;;;;;;;;;5065685;28;20197;-69
2021/05/01 03:05:11;;;;;;;33.03;22.93;;;;;;;;;;5063637;28;20275;-69
2021/05/01 03:07:37;;;;;;;39.40;23.10;;;;;;;;;;5056109;28;21566;-70
2021/05/01 03:10:06;;;;;;;35.67;22.33;;;;;;;;;;5067634;28;20181;-69
2021/05/01 03:12:31;;;;;;;29.77;20.87;;;;;;;;;;5057006;28;20213;-70
2021/05/01 03:14:56;;;;;;;36.23;23.13;;;;;;;;;;5062000;28;20638;-70
2021/05/01 03:17:21;;;;;;;36.37;22.83;;;;;;;;;;5064336;28;20205;-70
2021/05/01 03:19:47;;;;;;;31.40;20.97;;;;;;;;;;5063034;28;20195;-70
2021/05/01 03:22:12;;;;;;;33.97;22.77;;;;;;;;;;5061211;28;20189;-70
2021/05/01 03:24:38;;;;;;;32.43;23.37;;;;;;;;;;5056908;28;20257;-70
2021/05/01 03:27:03;;;;;;;38.67;24.57;;;;;;;;;;5057228;28;20166;-70
2021/05/01 03:29:28;;;;;;;34.10;22.63;;;;;;;;;;5061975;28;20216;-70
2021/05/01 03:31:54;;;;;;;38.67;22.57;;;;;;;;;;5064681;28;20215;-70
2021/05/01 03:34:19;;;;;;;39.23;23.83;;;;;;;;;;5060904;28;20181;-70
2021/05/01 03:36:44;;;;;;;37.23;22.97;;;;;;;;;;5070326;28;20197;-70
2021/05/01 03:39:09;;;;;;;34.90;23.23;;;;;;;;;;5065512;28;20228;-71
2021/05/01 03:41:34;;;;;;;34.27;22.67;;;;;;;;;;5065797;28;20193;-70
2021/05/01 03:44:00;;;;;;;32.23;23.17;;;;;;;;;;5057446;28;20647;-72
2021/05/01 03:46:25;;;;;;;35.03;22.70;;;;;;;;;;5060667;28;20229;-70
2021/05/01 03:48:50;;;;;;;34.70;23.03;;;;;;;;;;5064712;28;20186;-70
2021/05/01 03:51:15;;;;;;;35.97;24.07;;;;;;;;;;5058085;28;20228;-70
2021/05/01 03:53:41;;;;;;;37.10;23.70;;;;;;;;;;5061962;28;20177;-69
2021/05/01 03:56:06;;;;;;;34.90;23.33;;;;;;;;;;5065505;28;20408;-70
2021/05/01 03:58:31;;;;;;;42.00;23.17;;;;;;;;;;5066397;28;20201;-69
2021/05/01 04:00:56;;;;;;;32.13;21.53;;;;;;;;;;5061691;28;20201;-71
2021/05/01 04:03:21;;;;;;;35.67;22.03;;;;;;;;;;5066382;28;20634;-70
2021/05/01 04:05:47;;;;;;;34.83;23.13;;;;;;;;;;5064100;28;20184;-70
2021/05/01 04:08:12;;;;;;;34.47;24.60;;;;;;;;;;5064007;28;20184;-69
2021/05/01 04:10:37;;;;;;;33.20;22.07;;;;;;;;;;5063114;28;20858;-71
2021/05/01 04:13:02;;;;;;;38.57;22.70;;;;;;;;;;5062956;28;20177;-70
2021/05/01 04:15:28;;;;;;;32.73;22.67;;;;;;;;;;5059715;28;20180;-71
2021/05/01 04:17:53;;;;;;;34.87;22.43;;;;;;;;;;5068734;28;20720;-70
2021/05/01 04:20:19;;;;;;;27.40;21.17;;;;;;;;;;5061751;28;20265;-69
2021/05/01 04:22:44;;;;;;;31.57;21.93;;;;;;;;;;5063728;28;20203;-70
2021/05/01 04:25:11;;;;;;;34.30;21.67;;;;;;;;;;5063282;28;20178;-70
2021/05/01 04:27:36;;;;;;;30.40;21.50;;;;;;;;;;5064194;28;20208;-71
2021/05/01 04:30:02;;;;;;;32.17;21.13;;;;;;;;;;5062725;28;20595;-70
2021/05/01 04:32:27;;;;;;;31.53;21.97;;;;;;;;;;5064611;28;20213;-71
2021/05/01 04:34:52;;;;;;;34.07;21.80;;;;;;;;;;5054645;28;20177;-70
2021/05/01 04:37:17;;;;;;;35.50;22.50;;;;;;;;;;5067521;28;20582;-70
2021/05/01 04:39:42;;;;;;;32.00;22.00;;;;;;;;;;5064673;28;20184;-70
2021/05/01 04:42:08;;;;;;;34.33;22.20;;;;;;;;;;5061206;28;20573;-70
2021/05/01 04:44:34;;;;;;;32.67;21.60;;;;;;;;;;5052141;28;20204;-70
2021/05/01 04:46:59;;;;;;;41.00;23.03;;;;;;;;;;5059024;28;20173;-70
2021/05/01 04:49:24;;;;;;;34.73;23.20;;;;;;;;;;5061897;28;20193;-70
2021/05/01 04:51:49;;;;;;;34.40;23.03;;;;;;;;;;5059788;28;20201;-70
2021/05/01 04:54:15;;;;;;;34.40;22.43;;;;;;;;;;5061720;28;20170;-70
2021/05/01 04:56:40;;;;;;;37.80;22.10;;;;;;;;;;5066002;28;20181;-70
2021/05/01 04:59:05;;;;;;;35.07;22.47;;;;;;;;;;5060633;28;20686;-70
2021/05/01 05:01:31;;;;;;;36.03;24.07;;;;;;;;;;5063698;28;20192;-71
2021/05/01 05:03:56;;;;;;;39.40;24.73;;;;;;;;;;5058108;28;20256;-70
2021/05/01 05:06:21;;;;;;;37.67;24.23;;;;;;;;;;5062632;28;20174;-71
2021/05/01 05:08:46;;;;;;;33.80;23.97;;;;;;;;;;5062410;28;20235;-70
2021/05/01 05:11:12;;;;;;;36.17;24.27;;;;;;;;;;5062024;28;20669;-70
2021/05/01 05:13:37;;;;;;;33.93;23.93;;;;;;;;;;5054264;28;20185;-71
2021/05/01 05:16:02;;;;;;;35.67;23.90;;;;;;;;;;5064804;28;20184;-70
2021/05/01 05:18:28;;;;;;;36.73;25.63;;;;;;;;;;5055717;28;20720;-70
2021/05/01 05:20:53;;;;;;;33.60;24.23;;;;;;;;;;5059756;28;20219;-70
2021/05/01 05:23:18;;;;;;;36.27;24.17;;;;;;;;;;5065409;28;20180;-69
2021/05/01 05:25:44;;;;;;;36.77;24.93;;;;;;;;;;5055549;28;20212;-70
2021/05/01 05:28:09;;;;;;;31.53;23.63;;;;;;;;;;5059521;28;20182;-70
2021/05/01 05:30:34;;;;;;;35.97;24.40;;;;;;;;;;5055466;28;20202;-70
2021/05/01 05:33:00;;;;;;;33.50;25.20;;;;;;;;;;5059018;28;20200;-71
2021/05/01 05:35:26;;;;;;;32.00;24.60;;;;;;;;;;5056486;28;20318;-71
2021/05/01 05:37:51;;;;;;;37.80;25.07;;;;;;;;;;5056555;28;20221;-71
2021/05/01 05:40:16;;;;;;;32.37;23.03;;;;;;;;;;5063271;28;20631;-70
2021/05/01 05:42:43;;;;;;;32.60;23.70;;;;;;;;;;5055521;28;20197;-70
2021/05/01 05:45:09;;;;;;;33.97;24.97;;;;;;;;;;5056312;28;20643;-70
2021/05/01 05:47:34;;;;;;;29.30;23.00;;;;;;;;;;5058477;28;20268;-70
2021/05/01 05:50:00;;;;;;;31.20;20.80;;;;;;;;;;5058157;28;20614;-70
2021/05/01 05:52:25;;;;;;;25.50;20.23;;;;;;;;;;5055703;28;20201;-70
2021/05/01 05:54:50;;;;;;;30.13;20.77;;;;;;;;;;5056908;28;20217;-70
2021/05/01 05:57:15;;;;;;;23.80;19.03;;;;;;;;;;5050159;28;20189;-70
2021/05/01 05:59:42;;;;;;;26.40;17.93;;;;;;;;;;5059497;28;20169;-70
2021/05/01 06:02:07;;;;;;;19.07;16.23;;;;;;;;;;5060623;28;20289;-69
2021/05/01 06:04:37;;;;;;;22.67;15.07;;;;;;;;;;5057017;28;20711;-69
2021/05/01 06:07:17;;;;;;;23.93;14.30;;;;;;;;;;5056114;28;20548;-70
2021/05/01 06:09:42;;;;;;;17.07;13.57;;;;;;;;;;5056332;28;20174;-69
2021/05/01 06:12:08;;;;;;;22.27;14.73;;;;;;;;;;5058654;28;20562;-69
2021/05/01 06:14:34;;;;;;;19.70;14.03;;;;;;;;;;5059868;28;20198;-69
2021/05/01 06:17:00;;;;;;;15.90;12.73;;;;;;;;;;5061518;28;20568;-70
2021/05/01 06:19:26;;;;;;;18.63;13.73;;;;;;;;;;5061115;28;20202;-69
2021/05/01 06:21:51;;;;;;;18.17;13.77;;;;;;;;;;5071219;28;20911;-70
2021/05/01 06:24:17;;;;;;;18.80;11.10;;;;;;;;;;5066679;28;20165;-69
2021/05/01 06:26:43;;;;;;;14.13;11.13;;;;;;;;;;5057733;28;20204;-70
2021/05/01 06:29:09;;;;;;;14.10;10.90;;;;;;;;;;5066886;28;20181;-69
2021/05/01 06:31:35;;;;;;;12.60;10.30;;;;;;;;;;5055692;28;20205;-69
2021/05/01 06:34:01;;;;;;;16.43;9.67;;;;;;;;;;5063235;28;20173;-69
2021/05/01 06:36:27;;;;;;;11.37;9.60;;;;;;;;;;5067587;28;20197;-70
2021/05/01 06:38:57;;;;;;;13.40;10.00;;;;;;;;;;5067131;28;20215;-70
2021/05/01 06:41:23;;;;;;;9.30;8.33;;;;;;;;;;5064553;28;20742;-70
2021/05/01 06:43:51;;;;;;;12.83;8.20;;;;;;;;;;5057899;28;20173;-70
2021/05/01 06:46:18;;;;;;;12.00;8.90;;;;;;;;;;5062515;28;20662;-70
2021/05/01 06:48:46;;;;;;;13.67;8.63;;;;;;;;;;5060696;28;20174;-69
2021/05/01 06:51:11;;;;;;;10.93;7.80;;;;;;;;;;5061306;28;20701;-69
2021/05/01 06:53:37;;;;;;;13.17;7.20;;;;;;;;;;5062403;28;20173;-69
2021/05/01 06:56:03;;;;;;;9.23;6.83;;;;;;;;;;5063937;28;20268;-69
2021/05/01 06:58:30;;;;;;;13.10;7.23;;;;;;;;;;5071824;28;20203;-69
2021/05/01 07:00:56;;;;;;;8.20;6.20;;;;;;;;;;5061549;28;20655;-70
2021/05/01 07:03:22;;;;;;;8.13;5.70;;;;;;;;;;5063678;28;20182;-69
2021/05/01 07:05:48;;;;;;;11.93;6.50;;;;;;;;;;5055687;28;20545;-70
2021/05/01 07:08:13;;;;;;;12.70;6.43;;;;;;;;;;5058070;28;20181;-69
2021/05/01 07:10:39;;;;;;;11.13;5.70;;;;;;;;;;5066014;28;20169;-69
2021/05/01 07:13:04;;;;;;;8.17;5.60;;;;;;;;;;5071124;28;20173;-69
2021/05/01 07:15:29;;;;;;;9.93;5.30;;;;;;;;;;5078475;28;20201;-68
2021/05/01 07:17:54;;;;;;;6.97;5.07;;;;;;;;;;5068768;28;20694;-70
2021/05/01 07:20:20;;;;;;;11.60;5.67;;;;;;;;;;5066172;28;20192;-69
2021/05/01 07:22:48;;;;;;;6.50;5.43;;;;;;;;;;5065428;28;20250;-70
2021/05/01 07:25:15;;;;;;;6.63;5.07;;;;;;;;;;5064681;28;20169;-69
2021/05/01 07:27:41;;;;;;;11.37;5.50;;;;;;;;;;5066356;28;20260;-69
2021/05/01 07:30:07;;;;;;;10.83;6.17;;;;;;;;;;5063883;28;20183;-69
2021/05/01 07:32:34;;;;;;;9.67;5.00;;;;;;;;;;5062703;28;20258;-69
2021/05/01 07:35:03;;;;;;;7.23;4.80;;;;;;;;;;5065110;28;20568;-70
2021/05/01 07:37:29;;;;;;;7.90;5.07;;;;;;;;;;5058455;28;20209;-69
2021/05/01 07:39:56;;;;;;;9.10;4.80;;;;;;;;;;5066217;28;20187;-69
2021/05/01 07:42:21;;;;;;;11.33;4.73;;;;;;;;;;5064934;28;20547;-69
2021/05/01 07:44:47;;;;;;;8.60;4.30;;;;;;;;;;5060241;28;20184;-70
2021/05/01 07:47:14;;;;;;;5.97;4.27;;;;;;;;;;5067441;28;21604;-70
2021/05/01 07:49:40;;;;;;;8.13;4.10;;;;;;;;;;5063218;28;20234;-70
2021/05/01 07:52:06;;;;;;;6.43;3.87;;;;;;;;;;5062787;28;20193;-70
2021/05/01 07:54:33;;;;;;;6.03;4.53;;;;;;;;;;5054791;28;20173;-70
2021/05/01 07:56:58;;;;;;;5.87;4.67;;;;;;;;;;5063768;28;20176;-69
2021/05/01 07:59:24;;;;;;;7.37;4.20;;;;;;;;;;5063033;28;20618;-69
2021/05/01 08:01:49;;;;;;;8.00;4.60;;;;;;;;;;5069893;28;20214;-70
2021/05/01 08:04:14;;;;;;;6.27;4.30;;;;;;;;;;5059607;28;20655;-71
2021/05/01 08:06:39;;;;;;;6.47;3.60;;;;;;;;;;5069295;28;20195;-70
2021/05/01 08:09:05;;;;;;;8.17;4.33;;;;;;;;;;5062446;28;20177;-69
2021/05/01 08:11:30;;;;;;;8.33;4.07;;;;;;;;;;5053847;28;20293;-70
2021/05/01 08:13:55;;;;;;;11.17;4.37;;;;;;;;;;5058437;28;20173;-69
2021/05/01 08:16:20;;;;;;;5.50;3.40;;;;;;;;;;5063865;28;20188;-71
2021/05/01 08:18:46;;;;;;;5.55;4.15;;;;;;;;;;5063082;28;20190;-70
2021/05/01 08:21:11;;;;;;;5.07;3.83;;;;;;;;;;5059878;28;20614;-70
2021/05/01 08:23:36;;;;;;;5.70;4.57;;;;;;;;;;5058951;28;20178;-70
2021/05/01 08:26:02;;;;;;;6.88;4.78;;;;;;;;;;5056859;28;20610;-69
2021/05/01 08:28:27;;;;;;;6.03;3.80;;;;;;;;;;5058913;28;20177;-70
2021/05/01 08:30:53;;;;;;;7.97;4.03;;;;;;;;;;5063482;28;20172;-70
2021/05/01 08:33:18;;;;;;;3.88;3.45;;;;;;;;;;5059346;28;20587;-70
2021/05/01 08:35:44;;;;;;;5.22;3.17;;;;;;;;;;5059698;28;20221;-70
2021/05/01 08:38:09;;;;;;;3.58;2.78;;;;;;;;;;5065088;28;20577;-69
2021/05/01 08:40:35;;;;;;;9.73;3.75;;;;;;;;;;5057763;28;20196;-70
2021/05/01 08:43:01;;;;;;;5.67;2.90;;;;;;;;;;5057297;28;20228;-70
2021/05/01 08:45:27;;;;;;;5.20;2.88;;;;;;;;;;5062741;28;20209;-70
2021/05/01 08:47:53;;;;;;;7.10;4.37;;;;;;;;;;5057876;28;20176;-70
2021/05/01 08:50:24;;;;;;;21.50;4.00;;;;;;;;;;5061451;28;20208;-69
2021/05/01 08:52:49;;;;;;;4.90;3.50;;;;;;;;;;5057807;28;20197;-70
2021/05/01 08:55:15;;;;;;;5.20;2.57;;;;;;;;;;5061076;28;20708;-69
2021/05/01 08:57:40;;;;;;;5.47;3.07;;;;;;;;;;5063599;28;20673;-70
2021/05/01 09:00:05;;;;;;;6.30;3.20;;;;;;;;;;5066921;28;20176;-70
2021/05/01 09:02:31;;;;;;;8.80;3.57;;;;;;;;;;5066246;28;20280;-69
2021/05/01 09:04:57;;;;;;;4.73;3.17;;;;;;;;;;5063980;28;20173;-69
2021/05/01 09:07:23;;;;;;;5.77;3.97;;;;;;;;;;5068575;28;20235;-72
2021/05/01 09:09:56;;;;;;;5.40;3.50;;;;;;;;;;5065575;28;20181;-70
2021/05/01 09:12:40;;;;;;;10.60;3.67;;;;;;;;;;5068231;28;20185;-70
2021/05/01 09:15:11;;;;;;;8.17;3.90;;;;;;;;;;5068308;28;20169;-70
2021/05/01 09:17:36;;;;;;;6.57;3.50;;;;;;;;;;5062375;28;20295;-70
2021/05/01 09:20:06;;;;;;;4.27;2.77;;;;;;;;;;5062841;28;20231;-70
2021/05/01 09:22:31;;;;;;;5.23;3.10;;;;;;;;;;5059850;28;20219;-70
2021/05/01 09:25:07;;;;;;;4.63;3.17;;;;;;;;;;5056825;28;20165;-69
2021/05/01 09:27:32;;;;;;;5.32;4.03;;;;;;;;;;5047467;28;20182;-69
2021/05/01 09:30:10;;;;;;;3.00;2.80;;;;;;;;;;5056565;28;20550;-69
2021/05/01 09:32:35;;;;;;;4.90;2.58;;;;;;;;;;5061514;28;20201;-69
2021/05/01 09:35:00;;;;;;;4.03;2.05;;;;;;;;;;5056547;28;20253;-70
2021/05/01 09:37:27;;;;;;;7.28;2.28;;;;;;;;;;5055568;28;20608;-70
2021/05/01 09:39:53;;;;;;;3.72;2.47;;;;;;;;;;5065244;28;20639;-70
2021/05/01 09:42:20;;;;;;;5.15;2.58;;;;;;;;;;5063884;28;20180;-70
2021/05/01 09:44:45;;;;;;;3.65;2.40;;;;;;;;;;5053013;28;20185;-71
2021/05/01 09:47:16;;;;;;;4.80;3.83;;;;;;;;;;5061032;28;20243;-70
2021/05/01 09:49:42;;;;;;;5.85;2.22;;;;;;;;;;5058111;28;20669;-70
2021/05/01 09:52:10;;;;;;;4.15;2.65;;;;;;;;;;5057013;28;20288;-70
2021/05/01 09:54:37;;;;;;;2.33;2.13;;;;;;;;;;5055198;28;20627;-71
2021/05/01 09:57:04;;;;;;;3.17;2.38;;;;;;;;;;5059606;28;20553;-71
2021/05/01 09:59:54;;;;;;;3.83;2.25;;;;;;;;;;5053343;28;20205;-71
2021/05/01 10:02:34;;;;;;;3.92;2.50;;;;;;;;;;5060104;28;20240;-71
2021/05/01 10:05:09;;;;;;;4.45;2.50;;;;;;;;;;5055385;28;20169;-70
2021/05/01 10:07:36;;;;;;;3.90;2.10;;;;;;;;;;5059510;28;20585;-71
2021/05/01 10:10:01;;;;;;;2.88;2.10;;;;;;;;;;5062839;28;20195;-70
2021/05/01 10:12:33;;;;;;;5.78;2.40;;;;;;;;;;5061724;28;20678;-71
2021/05/01 10:14:59;;;;;;;4.20;2.60;;;;;;;;;;5069130;28;20203;-71
2021/05/01 10:17:26;;;;;;;7.88;3.35;;;;;;;;;;5064116;28;20228;-71
2021/05/01 10:20:00;;;;;;;3.22;2.20;;;;;;;;;;5068609;28;20185;-71
2021/05/01 10:22:33;;;;;;;4.38;2.40;;;;;;;;;;5060761;28;20227;-70
2021/05/01 10:25:04;;;;;;;1.92;1.70;;;;;;;;;;5068680;28;20173;-72
2021/05/01 10:27:40;;;;;;;3.47;2.90;;;;;;;;;;5058562;28;20256;-71
2021/05/01 10:30:11;;;;;;;4.32;2.05;;;;;;;;;;5055459;28;20227;-71
2021/05/01 10:32:41;;;;;;;4.85;2.33;;;;;;;;;;5065165;28;20189;-71
2021/05/01 10:35:07;;;;;;;6.07;2.80;;;;;;;;;;5067394;28;20178;-71
2021/05/01 10:37:36;;;;;;;2.25;2.03;;;;;;;;;;5066987;28;20192;-71
2021/05/01 10:40:01;;;;;;;2.35;2.15;;;;;;;;;;5061105;28;20243;-72
2021/05/01 10:42:26;;;;;;;2.65;1.80;;;;;;;;;;5061016;28;20209;-71
2021/05/01 10:44:55;;;;;;;3.22;2.00;;;;;;;;;;5063784;28;20181;-72
2021/05/01 10:47:21;;;;;;;5.50;1.85;;;;;;;;;;5061880;28;20595;-71
2021/05/01 10:49:46;;;;;;;3.97;2.35;;;;;;;;;;5069107;28;20169;-70
2021/05/01 10:52:12;;;;;;;6.07;2.67;;;;;;;;;;5067014;28;20716;-71
2021/05/01 10:54:37;;;;;;;8.43;6.60;;;;;;;;;;5064530;28;20180;-71
2021/05/01 10:57:11;;;;;;;3.60;2.50;;;;;;;;;;5063109;28;20544;-70
2021/05/01 10:59:37;;;;;;;5.38;2.70;;;;;;;;;;5071636;28;20294;-69
2021/05/01 11:02:12;;;;;;;2.35;2.00;;;;;;;;;;5067838;28;20223;-69
2021/05/01 11:04:47;;;;;;;8.00;2.88;;;;;;;;;;5074181;28;20637;-69
2021/05/01 11:07:22;;;;;;;6.30;2.30;;;;;;;;;;5065875;28;20188;-70
2021/05/01 11:09:48;;;;;;;3.60;2.75;;;;;;;;;;5070698;28;20290;-69
2021/05/01 11:12:13;;;;;;;3.20;2.20;;;;;;;;;;5071885;28;20215;-70
2021/05/01 11:14:39;;;;;;;3.10;2.10;;;;;;;;;;5070899;28;20173;-70
2021/05/01 11:17:08;;;;;;;6.25;1.92;;;;;;;;;;5066975;28;20432;-69
2021/05/01 11:19:39;;;;;;;3.55;3.20;;;;;;;;;;5075094;28;20606;-69
2021/05/01 11:22:06;;;;;;;3.30;3.00;;;;;;;;;;5062927;28;20197;-69
2021/05/01 11:24:31;;;;;;;2.55;2.08;;;;;;;;;;5070964;28;20513;-69
2021/05/01 11:26:56;;;;;;;2.83;2.05;;;;;;;;;;5068625;28;20260;-69
2021/05/01 11:29:21;;;;;;;3.23;2.43;;;;;;;;;;5071725;28;20484;-70
2021/05/01 11:31:47;;;;;;;4.65;2.50;;;;;;;;;;5060726;28;20457;-70
2021/05/01 11:34:13;;;;;;;3.25;1.90;;;;;;;;;;5063333;28;20173;-69
2021/05/01 11:36:43;;;;;;;3.08;1.90;;;;;;;;;;5054277;28;20268;-69
2021/05/01 11:39:10;;;;;;;3.22;2.20;;;;;;;;;;5065477;28;20244;-69
2021/05/01 11:41:35;;;;;;;3.35;2.00;;;;;;;;;;5069162;28;20203;-69
2021/05/01 11:44:01;;;;;;;3.17;2.20;;;;;;;;;;5067919;28;20256;-70
2021/05/01 11:46:31;;;;;;;2.38;1.67;;;;;;;;;;5068027;28;20170;-69
2021/05/01 11:49:01;;;;;;;2.00;1.75;;;;;;;;;;5072943;28;20272;-69
2021/05/01 11:51:32;;;;;;;3.35;2.20;;;;;;;;;;5068928;28;20715;-69
2021/05/01 11:54:15;;;;;;;4.07;2.13;;;;;;;;;;5058515;28;20238;-69
2021/05/01 11:56:40;;;;;;;2.95;2.03;;;;;;;;;;5061779;28;20246;-68
2021/05/01 11:59:13;;;;;;;3.50;2.58;;;;;;;;;;5071213;28;20554;-69
2021/05/01 12:01:58;;;;;;;2.83;2.35;;;;;;;;;;5070569;28;20981;-69
2021/05/01 12:04:39;;;;;;;2.45;2.00;;;;;;;;;;5060405;28;20785;-69
2021/05/01 12:07:05;;;;;;;4.32;2.25;;;;;;;;;;5057997;28;20213;-69
2021/05/01 12:09:31;;;;;;;2.88;2.20;;;;;;;;;;5071148;28;20601;-69
2021/05/01 12:11:58;;;;;;;3.10;2.35;;;;;;;;;;5072439;28;20342;-69
2021/05/01 12:14:26;;;;;;;5.45;2.30;;;;;;;;;;5068105;28;20208;-69
2021/05/01 12:16:51;;;;;;;2.55;2.20;;;;;;;;;;5070135;28;20213;-67
2021/05/01 12:19:25;;;;;;;4.85;2.55;;;;;;;;;;5068587;28;20246;-69
2021/05/01 12:21:51;;;;;;;2.83;2.03;;;;;;;;;;5061166;28;20201;-68
2021/05/01 12:24:24;;;;;;;3.10;2.28;;;;;;;;;;5061144;28;20185;-70
2021/05/01 12:26:49;;;;;;;4.05;2.38;;;;;;;;;;5061345;28;20566;-69
2021/05/01 12:29:17;;;;;;;2.38;2.15;;;;;;;;;;5069345;28;20178;-70
2021/05/01 12:31:43;;;;;;;5.97;2.60;;;;;;;;;;5066349;28;20194;-69
2021/05/01 12:34:08;;;;;;;3.17;2.67;;;;;;;;;;5060150;28;20181;-69
2021/05/01 12:36:39;;;;;;;3.13;2.60;;;;;;;;;;5058341;28;20198;-69
2021/05/01 12:39:04;;;;;;;3.58;2.60;;;;;;;;;;5058700;28;20220;-69
2021/05/01 12:41:31;;;;;;;3.47;2.67;;;;;;;;;;5059740;28;20295;-70
2021/05/01 12:43:56;;;;;;;3.03;2.50;;;;;;;;;;5063474;28;20720;-70
2021/05/01 12:46:28;;;;;;;4.13;2.50;;;;;;;;;;5060122;28;20185;-71
2021/05/01 12:48:54;;;;;;;2.92;2.20;;;;;;;;;;5055790;28;20179;-70
2021/05/01 12:51:19;;;;;;;2.70;2.50;;;;;;;;;;5056166;28;20201;-70
2021/05/01 12:53:44;;;;;;;7.57;2.72;;;;;;;;;;5057470;28;20189;-70
2021/05/01 12:56:30;;;;;;;9.18;2.42;;;;;;;;;;5060491;28;20911;-70
2021/05/01 12:59:14;;;;;;;2.90;2.53;;;;;;;;;;5062211;28;20196;-70
2021/05/01 13:01:39;;;;;;;3.45;2.40;;;;;;;;;;5056752;28;20192;-70
2021/05/01 13:04:25;;;;;;;4.47;1.90;;;;;;;;;;5059076;28;20223;-70
2021/05/01 13:06:53;;;;;;;3.42;2.58;;;;;;;;;;5065655;28;20177;-70
2021/05/01 13:09:19;;;;;;;2.35;2.10;;;;;;;;;;5060809;28;20176;-70
2021/05/01 13:11:59;;;;;;;3.75;2.30;;;;;;;;;;5056863;28;20744;-69
2021/05/01 13:14:25;;;;;;;3.70;2.05;;;;;;;;;;5061312;28;20215;-70
2021/05/01 13:16:59;;;;;;;2.75;2.08;;;;;;;;;;5060723;28;20181;-70
2021/05/01 13:19:25;;;;;;;2.45;2.25;;;;;;;;;;5054083;28;20215;-70
2021/05/01 13:22:00;;;;;;;2.80;2.50;;;;;;;;;;5061904;28;20197;-71
2021/05/01 13:24:29;;;;;;;3.53;2.28;;;;;;;;;;5059349;28;20217;-70
2021/05/01 13:26:55;;;;;;;3.72;3.08;;;;;;;;;;5060872;28;20177;-70
2021/05/01 13:29:28;;;;;;;2.83;2.20;;;;;;;;;;5058519;28;20268;-70
2021/05/01 13:31:54;;;;;;;3.05;2.10;;;;;;;;;;5055710;28;20197;-69
2021/05/01 13:34:19;;;;;;;2.65;2.10;;;;;;;;;;5061367;28;20218;-70
2021/05/01 13:36:44;;;;;;;3.45;1.98;;;;;;;;;;5065708;28;20192;-69
2021/05/01 13:39:16;;;;;;;4.70;1.90;;;;;;;;;;5056996;28;20555;-69
2021/05/01 13:41:42;;;;;;;2.15;1.80;;;;;;;;;;5058379;28;20217;-70
2021/05/01 13:44:07;;;;;;;3.97;2.60;;;;;;;;;;5057594;28;20265;-70
2021/05/01 13:46:42;;;;;;;2.40;2.13;;;;;;;;;;5059684;28;20184;-70
2021/05/01 13:49:08;;;;;;;3.03;2.20;;;;;;;;;;5059803;28;20173;-70
2021/05/01 13:51:33;;;;;;;2.67;1.63;;;;;;;;;;5058639;28;20227;-69
2021/05/01 13:54:05;;;;;;;1.80;1.55;;;;;;;;;;5060261;28;20172;-71
2021/05/01 13:56:31;;;;;;;2.53;2.10;;;;;;;;;;5060392;28;20670;-70
2021/05/01 13:58:56;;;;;;;3.27;2.03;;;;;;;;;;5056432;28;20197;-70
2021/05/01 14:01:21;;;;;;;2.35;1.75;;;;;;;;;;5061100;28;20457;-70
2021/05/01 14:03:46;;;;;;;2.50;2.30;;;;;;;;;;5058010;28;20188;-70
2021/05/01 14:06:11;;;;;;;2.95;2.42;;;;;;;;;;5060454;28;20180;-70
2021/05/01 14:08:36;;;;;;;4.78;2.13;;;;;;;;;;5056962;28;20174;-69
2021/05/01 14:11:02;;;;;;;3.22;1.80;;;;;;;;;;5059375;28;20678;-70
2021/05/01 14:13:29;;;;;;;3.80;2.58;;;;;;;;;;5055419;28;20184;-70
2021/05/01 14:15:55;;;;;;;4.65;2.90;;;;;;;;;;5059396;28;20211;-70
2021/05/01 14:18:21;;;;;;;3.50;2.20;;;;;;;;;;5059122;28;20681;-70
2021/05/01 14:20:52;;;;;;;3.10;1.80;;;;;;;;;;5062903;28;20165;-70
2021/05/01 14:23:21;;;;;;;3.63;1.73;;;;;;;;;;5058126;28;20636;-71
2021/05/01 14:25:47;;;;;;;4.35;2.45;;;;;;;;;;5066310;28;20608;-70
2021/05/01 14:28:16;;;;;;;2.30;2.08;;;;;;;;;;5055726;28;20223;-72